sensor_id;sensor_type;location;lat;lon;timestamp;P1;durP1;ratioP1;P2;durP2;ratioP2
45909;SDS011;31622;55.416;37.840;2023-05-10T00:00:12;10.52;;;7.45;;
45909;SDS011;31622;55.416;37.840;2023-05-10T00:02:38;11.57;;;7.78;;
45909;SDS011;31622;55.416;37.840;2023-05-10T00:05:05;12.00;;;7.82;;
45909;SDS011;31622;55.416;37.840;2023-05-10T00:07:32;13.07;;;7.07;;
45909;SDS011;31622;55.416;37.840;2023-05-10T00:09:57;10.90;;;6.93;;
45909;SDS011;31622;55.416;37.840;2023-05-10T00:12:23;9.65;;;6.90;;
45909;SDS011;31622;55.416;37.840;2023-05-10T00:14:49;12.20;;;7.50;;
45909;SDS011;31622;55.416;37.840;2023-05-10T00:17:15;12.73;;;7.55;;
45909;SDS011;31622;55.416;37.840;2023-05-10T00:19:40;12.30;;;7.38;;
45909;SDS011;31622;55.416;37.840;2023-05-10T00:22:06;10.05;;;7.07;;
45909;SDS011;31622;55.416;37.840;2023-05-10T00:24:32;10.20;;;6.90;;
45909;SDS011;31622;55.416;37.840;2023-05-10T00:26:57;9.60;;;7.10;;
45909;SDS011;31622;55.416;37.840;2023-05-10T00:29:23;12.52;;;7.60;;
45909;SDS011;31622;55.416;37.840;2023-05-10T00:31:49;11.07;;;7.00;;
45909;SDS011;31622;55.416;37.840;2023-05-10T00:34:15;10.93;;;7.70;;
45909;SDS011;31622;55.416;37.840;2023-05-10T00:36:40;11.20;;;7.22;;
45909;SDS011;31622;55.416;37.840;2023-05-10T00:39:06;11.93;;;7.35;;
45909;SDS011;31622;55.416;37.840;2023-05-10T00:41:33;9.73;;;6.97;;
45909;SDS011;31622;55.416;37.840;2023-05-10T00:43:59;9.88;;;6.32;;
45909;SDS011;31622;55.416;37.840;2023-05-10T00:46:27;9.90;;;6.93;;
45909;SDS011;31622;55.416;37.840;2023-05-10T00:48:53;11.20;;;6.40;;
45909;SDS011;31622;55.416;37.840;2023-05-10T00:51:19;9.25;;;6.32;;
45909;SDS011;31622;55.416;37.840;2023-05-10T00:53:45;10.23;;;5.63;;
45909;SDS011;31622;55.416;37.840;2023-05-10T00:56:11;9.98;;;6.07;;
45909;SDS011;31622;55.416;37.840;2023-05-10T00:58:38;9.60;;;6.10;;
45909;SDS011;31622;55.416;37.840;2023-05-10T01:01:04;12.77;;;6.20;;
45909;SDS011;31622;55.416;37.840;2023-05-10T01:03:31;9.90;;;6.13;;
45909;SDS011;31622;55.416;37.840;2023-05-10T01:05:57;10.55;;;6.25;;
45909;SDS011;31622;55.416;37.840;2023-05-10T01:08:23;13.75;;;6.43;;
45909;SDS011;31622;55.416;37.840;2023-05-10T01:10:51;8.38;;;5.80;;
45909;SDS011;31622;55.416;37.840;2023-05-10T01:13:27;9.70;;;5.70;;
45909;SDS011;31622;55.416;37.840;2023-05-10T01:16:02;7.85;;;5.72;;
45909;SDS011;31622;55.416;37.840;2023-05-10T01:18:29;11.32;;;6.50;;
45909;SDS011;31622;55.416;37.840;2023-05-10T01:21:11;9.43;;;5.95;;
45909;SDS011;31622;55.416;37.840;2023-05-10T01:41:18;11.80;;;5.90;;
45909;SDS011;31622;55.416;37.840;2023-05-10T01:46:39;8.38;;;5.55;;
45909;SDS011;31622;55.416;37.840;2023-05-10T01:49:08;10.25;;;5.50;;
45909;SDS011;31622;55.416;37.840;2023-05-10T01:51:57;9.77;;;5.55;;
45909;SDS011;31622;55.416;37.840;2023-05-10T01:54:26;10.88;;;6.20;;
45909;SDS011;31622;55.416;37.840;2023-05-10T01:56:55;7.35;;;5.18;;
45909;SDS011;31622;55.416;37.840;2023-05-10T01:59:24;6.53;;;5.10;;
45909;SDS011;31622;55.416;37.840;2023-05-10T02:01:52;7.72;;;5.20;;
45909;SDS011;31622;55.416;37.840;2023-05-10T02:04:18;9.45;;;5.20;;
45909;SDS011;31622;55.416;37.840;2023-05-10T02:06:45;10.95;;;5.80;;
45909;SDS011;31622;55.416;37.840;2023-05-10T02:09:12;13.65;;;6.95;;
45909;SDS011;31622;55.416;37.840;2023-05-10T02:11:38;9.55;;;7.05;;
45909;SDS011;31622;55.416;37.840;2023-05-10T02:14:05;13.25;;;7.18;;
45909;SDS011;31622;55.416;37.840;2023-05-10T02:16:33;11.32;;;6.57;;
45909;SDS011;31622;55.416;37.840;2023-05-10T02:19:01;10.27;;;6.95;;
45909;SDS011;31622;55.416;37.840;2023-05-10T02:21:28;12.77;;;6.85;;
45909;SDS011;31622;55.416;37.840;2023-05-10T02:23:54;11.07;;;6.82;;
45909;SDS011;31622;55.416;37.840;2023-05-10T02:26:20;9.02;;;6.30;;
45909;SDS011;31622;55.416;37.840;2023-05-10T02:28:47;11.30;;;5.70;;
45909;SDS011;31622;55.416;37.840;2023-05-10T02:31:15;9.52;;;6.20;;
45909;SDS011;31622;55.416;37.840;2023-05-10T02:33:41;10.30;;;5.18;;
45909;SDS011;31622;55.416;37.840;2023-05-10T02:36:08;10.25;;;5.55;;
45909;SDS011;31622;55.416;37.840;2023-05-10T02:38:35;10.85;;;5.47;;
45909;SDS011;31622;55.416;37.840;2023-05-10T02:41:02;8.10;;;5.47;;
45909;SDS011;31622;55.416;37.840;2023-05-10T02:43:30;10.52;;;5.50;;
45909;SDS011;31622;55.416;37.840;2023-05-10T02:45:56;7.68;;;5.18;;
45909;SDS011;31622;55.416;37.840;2023-05-10T02:48:22;11.05;;;5.40;;
45909;SDS011;31622;55.416;37.840;2023-05-10T02:50:48;9.35;;;5.00;;
45909;SDS011;31622;55.416;37.840;2023-05-10T02:53:18;8.88;;;5.32;;
45909;SDS011;31622;55.416;37.840;2023-05-10T02:55:49;9.13;;;5.80;;
45909;SDS011;31622;55.416;37.840;2023-05-10T02:58:17;14.85;;;6.30;;
45909;SDS011;31622;55.416;37.840;2023-05-10T03:00:46;13.05;;;6.88;;
45909;SDS011;31622;55.416;37.840;2023-05-10T03:03:12;12.57;;;8.50;;
45909;SDS011;31622;55.416;37.840;2023-05-10T03:05:37;14.45;;;8.45;;
45909;SDS011;31622;55.416;37.840;2023-05-10T03:08:03;11.98;;;8.60;;
45909;SDS011;31622;55.416;37.840;2023-05-10T03:10:30;12.90;;;8.75;;
45909;SDS011;31622;55.416;37.840;2023-05-10T03:13:07;15.15;;;9.18;;
45909;SDS011;31622;55.416;37.840;2023-05-10T03:15:37;11.68;;;9.02;;
45909;SDS011;31622;55.416;37.840;2023-05-10T03:18:22;13.98;;;9.18;;
45909;SDS011;31622;55.416;37.840;2023-05-10T03:20:50;15.15;;;8.90;;
45909;SDS011;31622;55.416;37.840;2023-05-10T03:25:48;15.38;;;9.65;;
45909;SDS011;31622;55.416;37.840;2023-05-10T03:28:16;13.50;;;9.48;;
45909;SDS011;31622;55.416;37.840;2023-05-10T03:30:43;17.10;;;9.13;;
45909;SDS011;31622;55.416;37.840;2023-05-10T03:33:10;15.43;;;9.60;;
45909;SDS011;31622;55.416;37.840;2023-05-10T03:35:40;12.55;;;8.23;;
45909;SDS011;31622;55.416;37.840;2023-05-10T03:38:06;20.13;;;7.80;;
45909;SDS011;31622;55.416;37.840;2023-05-10T03:40:32;15.45;;;8.98;;
45909;SDS011;31622;55.416;37.840;2023-05-10T03:42:58;15.98;;;8.27;;
45909;SDS011;31622;55.416;37.840;2023-05-10T03:45:25;14.60;;;8.18;;
45909;SDS011;31622;55.416;37.840;2023-05-10T03:47:51;12.48;;;7.05;;
45909;SDS011;31622;55.416;37.840;2023-05-10T03:50:17;13.00;;;7.05;;
45909;SDS011;31622;55.416;37.840;2023-05-10T03:52:43;11.80;;;6.10;;
45909;SDS011;31622;55.416;37.840;2023-05-10T03:55:09;14.32;;;5.90;;
45909;SDS011;31622;55.416;37.840;2023-05-10T03:57:36;11.77;;;5.80;;
45909;SDS011;31622;55.416;37.840;2023-05-10T04:00:02;14.40;;;5.97;;
45909;SDS011;31622;55.416;37.840;2023-05-10T04:02:39;22.92;;;6.35;;
45909;SDS011;31622;55.416;37.840;2023-05-10T04:05:06;13.45;;;5.97;;
45909;SDS011;31622;55.416;37.840;2023-05-10T04:07:32;22.05;;;5.78;;
45909;SDS011;31622;55.416;37.840;2023-05-10T04:09:58;11.38;;;5.65;;
45909;SDS011;31622;55.416;37.840;2023-05-10T04:12:24;10.95;;;5.30;;
45909;SDS011;31622;55.416;37.840;2023-05-10T04:14:50;8.60;;;5.40;;
45909;SDS011;31622;55.416;37.840;2023-05-10T04:17:16;14.85;;;5.57;;
45909;SDS011;31622;55.416;37.840;2023-05-10T04:19:41;11.05;;;5.00;;
45909;SDS011;31622;55.416;37.840;2023-05-10T04:22:07;11.15;;;4.88;;
45909;SDS011;31622;55.416;37.840;2023-05-10T04:24:33;13.35;;;4.78;;
45909;SDS011;31622;55.416;37.840;2023-05-10T04:26:59;12.35;;;5.00;;
45909;SDS011;31622;55.416;37.840;2023-05-10T04:29:26;8.52;;;4.70;;
45909;SDS011;31622;55.416;37.840;2023-05-10T04:31:52;10.52;;;4.63;;
45909;SDS011;31622;55.416;37.840;2023-05-10T04:34:20;7.55;;;4.63;;
45909;SDS011;31622;55.416;37.840;2023-05-10T04:36:46;7.75;;;4.28;;
45909;SDS011;31622;55.416;37.840;2023-05-10T04:39:11;10.68;;;5.10;;
45909;SDS011;31622;55.416;37.840;2023-05-10T04:41:38;9.05;;;4.75;;
45909;SDS011;31622;55.416;37.840;2023-05-10T04:44:04;7.78;;;4.47;;
45909;SDS011;31622;55.416;37.840;2023-05-10T04:46:31;11.07;;;4.45;;
45909;SDS011;31622;55.416;37.840;2023-05-10T04:48:56;7.75;;;4.43;;
45909;SDS011;31622;55.416;37.840;2023-05-10T04:51:22;7.70;;;4.22;;
45909;SDS011;31622;55.416;37.840;2023-05-10T04:53:48;7.78;;;4.40;;
45909;SDS011;31622;55.416;37.840;2023-05-10T04:56:13;9.48;;;4.20;;
45909;SDS011;31622;55.416;37.840;2023-05-10T04:58:39;6.72;;;4.35;;
45909;SDS011;31622;55.416;37.840;2023-05-10T05:01:08;9.25;;;4.20;;
45909;SDS011;31622;55.416;37.840;2023-05-10T05:03:34;8.25;;;4.78;;
45909;SDS011;31622;55.416;37.840;2023-05-10T05:06:00;8.23;;;4.50;;
45909;SDS011;31622;55.416;37.840;2023-05-10T05:08:26;9.75;;;4.50;;
45909;SDS011;31622;55.416;37.840;2023-05-10T05:10:52;9.43;;;4.40;;
45909;SDS011;31622;55.416;37.840;2023-05-10T05:13:17;9.40;;;4.70;;
45909;SDS011;31622;55.416;37.840;2023-05-10T05:15:43;7.50;;;3.90;;
45909;SDS011;31622;55.416;37.840;2023-05-10T05:18:09;10.93;;;4.68;;
45909;SDS011;31622;55.416;37.840;2023-05-10T05:20:35;13.50;;;4.28;;
45909;SDS011;31622;55.416;37.840;2023-05-10T05:23:01;14.40;;;5.00;;
45909;SDS011;31622;55.416;37.840;2023-05-10T05:25:27;12.93;;;4.13;;
45909;SDS011;31622;55.416;37.840;2023-05-10T05:27:52;17.33;;;4.60;;
45909;SDS011;31622;55.416;37.840;2023-05-10T05:30:18;10.02;;;3.95;;
45909;SDS011;31622;55.416;37.840;2023-05-10T05:32:44;11.57;;;4.20;;
45909;SDS011;31622;55.416;37.840;2023-05-10T05:35:10;8.90;;;3.78;;
45909;SDS011;31622;55.416;37.840;2023-05-10T05:37:36;12.95;;;4.47;;
45909;SDS011;31622;55.416;37.840;2023-05-10T05:40:02;10.82;;;3.90;;
45909;SDS011;31622;55.416;37.840;2023-05-10T05:42:28;12.52;;;4.50;;
45909;SDS011;31622;55.416;37.840;2023-05-10T05:44:54;12.20;;;3.90;;
45909;SDS011;31622;55.416;37.840;2023-05-10T05:47:20;11.60;;;3.95;;
45909;SDS011;31622;55.416;37.840;2023-05-10T05:49:46;10.38;;;4.00;;
45909;SDS011;31622;55.416;37.840;2023-05-10T05:52:12;9.13;;;3.83;;
45909;SDS011;31622;55.416;37.840;2023-05-10T05:54:38;10.32;;;4.32;;
45909;SDS011;31622;55.416;37.840;2023-05-10T05:57:03;6.30;;;4.55;;
45909;SDS011;31622;55.416;37.840;2023-05-10T05:59:29;6.93;;;4.28;;
45909;SDS011;31622;55.416;37.840;2023-05-10T06:01:55;8.75;;;4.18;;
45909;SDS011;31622;55.416;37.840;2023-05-10T06:04:21;5.10;;;3.75;;
45909;SDS011;31622;55.416;37.840;2023-05-10T06:06:46;7.13;;;4.18;;
45909;SDS011;31622;55.416;37.840;2023-05-10T06:09:12;7.32;;;3.47;;
45909;SDS011;31622;55.416;37.840;2023-05-10T06:11:38;6.07;;;3.47;;
45909;SDS011;31622;55.416;37.840;2023-05-10T06:14:04;9.15;;;3.72;;
45909;SDS011;31622;55.416;37.840;2023-05-10T06:16:32;13.65;;;3.72;;
45909;SDS011;31622;55.416;37.840;2023-05-10T06:18:57;3.95;;;2.80;;
45909;SDS011;31622;55.416;37.840;2023-05-10T06:21:23;7.95;;;2.75;;
45909;SDS011;31622;55.416;37.840;2023-05-10T06:23:49;6.53;;;2.83;;
45909;SDS011;31622;55.416;37.840;2023-05-10T06:26:15;5.88;;;2.65;;
45909;SDS011;31622;55.416;37.840;2023-05-10T06:28:40;8.50;;;2.97;;
45909;SDS011;31622;55.416;37.840;2023-05-10T06:31:06;5.15;;;2.95;;
45909;SDS011;31622;55.416;37.840;2023-05-10T06:33:32;4.03;;;2.60;;
45909;SDS011;31622;55.416;37.840;2023-05-10T06:35:58;6.03;;;2.97;;
45909;SDS011;31622;55.416;37.840;2023-05-10T06:38:24;5.22;;;2.58;;
45909;SDS011;31622;55.416;37.840;2023-05-10T06:40:50;8.43;;;2.83;;
45909;SDS011;31622;55.416;37.840;2023-05-10T06:43:16;3.83;;;2.40;;
45909;SDS011;31622;55.416;37.840;2023-05-10T06:45:42;4.63;;;2.40;;
45909;SDS011;31622;55.416;37.840;2023-05-10T06:48:07;4.63;;;2.58;;
45909;SDS011;31622;55.416;37.840;2023-05-10T06:50:33;4.50;;;2.45;;
45909;SDS011;31622;55.416;37.840;2023-05-10T06:52:59;7.35;;;2.90;;
45909;SDS011;31622;55.416;37.840;2023-05-10T06:55:25;4.43;;;2.60;;
45909;SDS011;31622;55.416;37.840;2023-05-10T06:57:51;6.22;;;2.58;;
45909;SDS011;31622;55.416;37.840;2023-05-10T07:00:18;5.47;;;2.25;;
45909;SDS011;31622;55.416;37.840;2023-05-10T07:02:44;4.50;;;2.38;;
45909;SDS011;31622;55.416;37.840;2023-05-10T07:05:10;4.65;;;2.10;;
45909;SDS011;31622;55.416;37.840;2023-05-10T07:07:36;4.05;;;2.05;;
45909;SDS011;31622;55.416;37.840;2023-05-10T07:10:02;5.78;;;2.50;;
45909;SDS011;31622;55.416;37.840;2023-05-10T07:12:28;4.00;;;2.20;;
45909;SDS011;31622;55.416;37.840;2023-05-10T07:14:54;3.05;;;1.85;;
45909;SDS011;31622;55.416;37.840;2023-05-10T07:17:20;3.13;;;2.10;;
45909;SDS011;31622;55.416;37.840;2023-05-10T07:19:46;4.82;;;2.10;;
45909;SDS011;31622;55.416;37.840;2023-05-10T07:22:11;4.05;;;2.30;;
45909;SDS011;31622;55.416;37.840;2023-05-10T07:24:38;4.13;;;2.10;;
45909;SDS011;31622;55.416;37.840;2023-05-10T07:27:03;3.92;;;2.47;;
45909;SDS011;31622;55.416;37.840;2023-05-10T07:29:29;4.60;;;2.35;;
45909;SDS011;31622;55.416;37.840;2023-05-10T07:31:55;4.72;;;2.40;;
45909;SDS011;31622;55.416;37.840;2023-05-10T07:34:21;5.75;;;2.20;;
45909;SDS011;31622;55.416;37.840;2023-05-10T07:36:46;6.07;;;2.22;;
45909;SDS011;31622;55.416;37.840;2023-05-10T07:39:12;4.07;;;2.20;;
45909;SDS011;31622;55.416;37.840;2023-05-10T07:41:38;6.45;;;2.20;;
45909;SDS011;31622;55.416;37.840;2023-05-10T07:44:04;4.97;;;1.73;;
45909;SDS011;31622;55.416;37.840;2023-05-10T07:46:31;6.05;;;2.67;;
45909;SDS011;31622;55.416;37.840;2023-05-10T07:48:57;8.88;;;3.05;;
45909;SDS011;31622;55.416;37.840;2023-05-10T07:51:22;11.52;;;2.88;;
45909;SDS011;31622;55.416;37.840;2023-05-10T07:53:48;5.18;;;2.50;;
45909;SDS011;31622;55.416;37.840;2023-05-10T07:56:24;7.00;;;2.70;;
45909;SDS011;31622;55.416;37.840;2023-05-10T07:58:58;9.05;;;3.17;;
45909;SDS011;31622;55.416;37.840;2023-05-10T08:01:24;6.72;;;2.55;;
45909;SDS011;31622;55.416;37.840;2023-05-10T08:03:50;5.47;;;2.40;;
45909;SDS011;31622;55.416;37.840;2023-05-10T08:06:18;6.60;;;2.90;;
45909;SDS011;31622;55.416;37.840;2023-05-10T08:08:45;7.25;;;2.67;;
45909;SDS011;31622;55.416;37.840;2023-05-10T08:11:17;7.38;;;2.78;;
45909;SDS011;31622;55.416;37.840;2023-05-10T08:13:46;6.97;;;2.80;;
45909;SDS011;31622;55.416;37.840;2023-05-10T08:16:13;6.90;;;2.60;;
45909;SDS011;31622;55.416;37.840;2023-05-10T08:18:39;5.80;;;2.67;;
45909;SDS011;31622;55.416;37.840;2023-05-10T08:21:05;7.47;;;2.40;;
45909;SDS011;31622;55.416;37.840;2023-05-10T08:23:31;7.10;;;2.40;;
45909;SDS011;31622;55.416;37.840;2023-05-10T08:25:57;7.25;;;2.40;;
45909;SDS011;31622;55.416;37.840;2023-05-10T08:28:23;7.13;;;2.90;;
45909;SDS011;31622;55.416;37.840;2023-05-10T08:30:49;5.95;;;2.30;;
45909;SDS011;31622;55.416;37.840;2023-05-10T08:33:15;4.82;;;2.28;;
45909;SDS011;31622;55.416;37.840;2023-05-10T08:35:42;6.47;;;2.55;;
45909;SDS011;31622;55.416;37.840;2023-05-10T08:38:08;4.05;;;2.17;;
45909;SDS011;31622;55.416;37.840;2023-05-10T08:40:34;4.75;;;2.50;;
45909;SDS011;31622;55.416;37.840;2023-05-10T08:43:09;4.45;;;2.22;;
45909;SDS011;31622;55.416;37.840;2023-05-10T08:45:37;6.43;;;2.28;;
45909;SDS011;31622;55.416;37.840;2023-05-10T08:48:07;5.40;;;2.25;;
45909;SDS011;31622;55.416;37.840;2023-05-10T08:50:37;7.15;;;3.10;;
45909;SDS011;31622;55.416;37.840;2023-05-10T08:53:09;3.05;;;2.08;;
45909;SDS011;31622;55.416;37.840;2023-05-10T08:55:36;4.00;;;1.70;;
45909;SDS011;31622;55.416;37.840;2023-05-10T08:58:04;9.80;;;2.10;;
45909;SDS011;31622;55.416;37.840;2023-05-10T09:00:30;6.22;;;1.90;;
45909;SDS011;31622;55.416;37.840;2023-05-10T09:02:57;3.85;;;1.80;;
45909;SDS011;31622;55.416;37.840;2023-05-10T09:05:24;4.88;;;1.90;;
45909;SDS011;31622;55.416;37.840;2023-05-10T09:07:49;3.13;;;1.52;;
45909;SDS011;31622;55.416;37.840;2023-05-10T09:10:15;3.47;;;1.70;;
45909;SDS011;31622;55.416;37.840;2023-05-10T09:12:41;3.10;;;1.55;;
45909;SDS011;31622;55.416;37.840;2023-05-10T09:15:09;4.22;;;1.60;;
45909;SDS011;31622;55.416;37.840;2023-05-10T09:17:35;4.95;;;1.70;;
45909;SDS011;31622;55.416;37.840;2023-05-10T09:20:03;3.13;;;1.60;;
45909;SDS011;31622;55.416;37.840;2023-05-10T09:22:32;3.70;;;1.60;;
45909;SDS011;31622;55.416;37.840;2023-05-10T09:25:05;3.97;;;1.98;;
45909;SDS011;31622;55.416;37.840;2023-05-10T09:27:36;4.80;;;1.80;;
45909;SDS011;31622;55.416;37.840;2023-05-10T09:30:03;5.65;;;1.55;;
45909;SDS011;31622;55.416;37.840;2023-05-10T09:32:37;3.60;;;1.50;;
45909;SDS011;31622;55.416;37.840;2023-05-10T09:37:46;4.32;;;1.50;;
45909;SDS011;31622;55.416;37.840;2023-05-10T09:40:14;3.20;;;1.48;;
45909;SDS011;31622;55.416;37.840;2023-05-10T09:45:33;4.65;;;1.40;;
45909;SDS011;31622;55.416;37.840;2023-05-10T09:47:59;4.18;;;1.40;;
45909;SDS011;31622;55.416;37.840;2023-05-10T09:50:27;2.47;;;1.30;;
45909;SDS011;31622;55.416;37.840;2023-05-10T09:52:54;2.25;;;1.50;;
45909;SDS011;31622;55.416;37.840;2023-05-10T09:58:06;4.00;;;1.50;;
45909;SDS011;31622;55.416;37.840;2023-05-10T10:00:44;4.40;;;1.63;;
45909;SDS011;31622;55.416;37.840;2023-05-10T10:03:21;4.13;;;1.42;;
45909;SDS011;31622;55.416;37.840;2023-05-10T10:05:48;4.38;;;1.40;;
45909;SDS011;31622;55.416;37.840;2023-05-10T10:08:14;2.78;;;1.23;;
45909;SDS011;31622;55.416;37.840;2023-05-10T10:10:41;4.28;;;1.73;;
45909;SDS011;31622;55.416;37.840;2023-05-10T10:13:07;3.40;;;1.58;;
45909;SDS011;31622;55.416;37.840;2023-05-10T10:15:34;4.35;;;1.50;;
45909;SDS011;31622;55.416;37.840;2023-05-10T10:18:00;6.20;;;1.55;;
45909;SDS011;31622;55.416;37.840;2023-05-10T10:20:26;3.42;;;1.55;;
45909;SDS011;31622;55.416;37.840;2023-05-10T10:22:53;4.65;;;1.80;;
45909;SDS011;31622;55.416;37.840;2023-05-10T10:25:19;3.92;;;1.50;;
45909;SDS011;31622;55.416;37.840;2023-05-10T10:35:31;6.35;;;2.00;;
45909;SDS011;31622;55.416;37.840;2023-05-10T10:37:57;7.93;;;2.25;;
45909;SDS011;31622;55.416;37.840;2023-05-10T10:42:51;9.60;;;2.17;;
45909;SDS011;31622;55.416;37.840;2023-05-10T10:45:18;11.02;;;2.95;;
45909;SDS011;31622;55.416;37.840;2023-05-10T10:47:45;9.13;;;2.40;;
45909;SDS011;31622;55.416;37.840;2023-05-10T10:50:11;8.27;;;2.50;;
45909;SDS011;31622;55.416;37.840;2023-05-10T10:52:44;10.20;;;2.50;;
45909;SDS011;31622;55.416;37.840;2023-05-10T10:55:17;9.70;;;2.25;;
45909;SDS011;31622;55.416;37.840;2023-05-10T10:57:48;6.20;;;2.65;;
45909;SDS011;31622;55.416;37.840;2023-05-10T11:00:24;11.43;;;2.65;;
45909;SDS011;31622;55.416;37.840;2023-05-10T11:02:56;7.82;;;2.67;;
45909;SDS011;31622;55.416;37.840;2023-05-10T11:08:21;10.35;;;2.47;;
45909;SDS011;31622;55.416;37.840;2023-05-10T11:13:45;7.30;;;2.20;;
45909;SDS011;31622;55.416;37.840;2023-05-10T11:16:14;5.30;;;2.20;;
45909;SDS011;31622;55.416;37.840;2023-05-10T11:18:41;5.70;;;2.05;;
45909;SDS011;31622;55.416;37.840;2023-05-10T11:21:47;7.97;;;2.38;;
45909;SDS011;31622;55.416;37.840;2023-05-10T11:24:15;6.95;;;2.20;;
45909;SDS011;31622;55.416;37.840;2023-05-10T11:26:42;6.72;;;2.45;;
45909;SDS011;31622;55.416;37.840;2023-05-10T11:29:08;6.40;;;2.47;;
45909;SDS011;31622;55.416;37.840;2023-05-10T11:31:34;7.30;;;2.05;;
45909;SDS011;31622;55.416;37.840;2023-05-10T11:34:00;5.35;;;2.28;;
45909;SDS011;31622;55.416;37.840;2023-05-10T11:36:27;4.43;;;1.90;;
45909;SDS011;31622;55.416;37.840;2023-05-10T11:38:55;3.83;;;1.83;;
45909;SDS011;31622;55.416;37.840;2023-05-10T11:41:22;3.90;;;1.77;;
45909;SDS011;31622;55.416;37.840;2023-05-10T11:43:52;4.30;;;1.83;;
45909;SDS011;31622;55.416;37.840;2023-05-10T11:46:19;5.70;;;1.88;;
45909;SDS011;31622;55.416;37.840;2023-05-10T11:48:46;4.03;;;2.05;;
45909;SDS011;31622;55.416;37.840;2023-05-10T11:51:12;13.18;;;3.70;;
45909;SDS011;31622;55.416;37.840;2023-05-10T11:53:38;17.15;;;5.80;;
45909;SDS011;31622;55.416;37.840;2023-05-10T11:56:07;22.13;;;6.22;;
45909;SDS011;31622;55.416;37.840;2023-05-10T11:58:34;28.20;;;8.25;;
45909;SDS011;31622;55.416;37.840;2023-05-10T12:01:01;19.70;;;7.10;;
45909;SDS011;31622;55.416;37.840;2023-05-10T12:03:28;26.35;;;7.57;;
45909;SDS011;31622;55.416;37.840;2023-05-10T12:05:54;25.65;;;8.55;;
45909;SDS011;31622;55.416;37.840;2023-05-10T12:08:27;25.02;;;7.90;;
45909;SDS011;31622;55.416;37.840;2023-05-10T12:11:04;29.52;;;8.02;;
45909;SDS011;31622;55.416;37.840;2023-05-10T12:13:31;39.92;;;11.85;;
45909;SDS011;31622;55.416;37.840;2023-05-10T12:15:57;25.27;;;8.77;;
45909;SDS011;31622;55.416;37.840;2023-05-10T12:18:23;36.33;;;12.45;;
45909;SDS011;31622;55.416;37.840;2023-05-10T12:20:52;32.40;;;11.98;;
45909;SDS011;31622;55.416;37.840;2023-05-10T12:23:21;49.10;;;16.05;;
45909;SDS011;31622;55.416;37.840;2023-05-10T12:25:47;55.25;;;17.52;;
45909;SDS011;31622;55.416;37.840;2023-05-10T12:28:12;48.40;;;17.63;;
45909;SDS011;31622;55.416;37.840;2023-05-10T12:30:38;53.20;;;17.80;;
45909;SDS011;31622;55.416;37.840;2023-05-10T12:35:47;45.88;;;16.95;;
45909;SDS011;31622;55.416;37.840;2023-05-10T12:40:59;48.75;;;16.23;;
45909;SDS011;31622;55.416;37.840;2023-05-10T12:43:26;48.33;;;16.95;;
45909;SDS011;31622;55.416;37.840;2023-05-10T12:45:52;43.80;;;16.30;;
45909;SDS011;31622;55.416;37.840;2023-05-10T12:48:18;45.40;;;16.15;;
45909;SDS011;31622;55.416;37.840;2023-05-10T12:50:45;45.78;;;13.95;;
45909;SDS011;31622;55.416;37.840;2023-05-10T12:53:10;40.40;;;14.65;;
45909;SDS011;31622;55.416;37.840;2023-05-10T12:55:36;32.75;;;13.10;;
45909;SDS011;31622;55.416;37.840;2023-05-10T12:58:02;37.30;;;13.98;;
45909;SDS011;31622;55.416;37.840;2023-05-10T13:00:27;27.65;;;10.40;;
45909;SDS011;31622;55.416;37.840;2023-05-10T13:02:53;32.15;;;12.98;;
45909;SDS011;31622;55.416;37.840;2023-05-10T13:05:19;28.90;;;12.40;;
45909;SDS011;31622;55.416;37.840;2023-05-10T13:07:45;18.42;;;7.88;;
45909;SDS011;31622;55.416;37.840;2023-05-10T13:10:10;18.17;;;7.72;;
45909;SDS011;31622;55.416;37.840;2023-05-10T13:12:36;16.92;;;7.05;;
45909;SDS011;31622;55.416;37.840;2023-05-10T13:15:02;26.88;;;10.07;;
45909;SDS011;31622;55.416;37.840;2023-05-10T13:17:29;25.08;;;10.23;;
45909;SDS011;31622;55.416;37.840;2023-05-10T13:19:55;21.73;;;8.00;;
45909;SDS011;31622;55.416;37.840;2023-05-10T13:22:20;26.05;;;9.38;;
45909;SDS011;31622;55.416;37.840;2023-05-10T13:24:46;21.50;;;8.80;;
45909;SDS011;31622;55.416;37.840;2023-05-10T13:27:12;22.48;;;8.82;;
45909;SDS011;31622;55.416;37.840;2023-05-10T13:29:38;21.08;;;8.57;;
45909;SDS011;31622;55.416;37.840;2023-05-10T13:32:04;19.83;;;8.00;;
45909;SDS011;31622;55.416;37.840;2023-05-10T13:34:30;11.63;;;4.80;;
45909;SDS011;31622;55.416;37.840;2023-05-10T13:36:55;16.10;;;6.90;;
45909;SDS011;31622;55.416;37.840;2023-05-10T13:39:21;18.63;;;7.72;;
45909;SDS011;31622;55.416;37.840;2023-05-10T13:41:47;14.48;;;6.07;;
45909;SDS011;31622;55.416;37.840;2023-05-10T13:44:13;16.48;;;6.78;;
45909;SDS011;31622;55.416;37.840;2023-05-10T13:46:42;14.43;;;5.95;;
45909;SDS011;31622;55.416;37.840;2023-05-10T13:49:09;13.13;;;5.80;;
45909;SDS011;31622;55.416;37.840;2023-05-10T13:51:35;14.15;;;5.65;;
45909;SDS011;31622;55.416;37.840;2023-05-10T13:54:01;13.57;;;5.93;;
45909;SDS011;31622;55.416;37.840;2023-05-10T13:56:27;11.27;;;5.85;;
45909;SDS011;31622;55.416;37.840;2023-05-10T13:58:53;12.98;;;5.65;;
45909;SDS011;31622;55.416;37.840;2023-05-10T14:01:19;9.57;;;3.92;;
45909;SDS011;31622;55.416;37.840;2023-05-10T14:03:45;13.38;;;5.38;;
45909;SDS011;31622;55.416;37.840;2023-05-10T14:06:10;10.63;;;4.30;;
45909;SDS011;31622;55.416;37.840;2023-05-10T14:08:36;10.25;;;4.95;;
45909;SDS011;31622;55.416;37.840;2023-05-10T14:11:02;10.18;;;4.13;;
45909;SDS011;31622;55.416;37.840;2023-05-10T14:13:27;10.15;;;4.20;;
45909;SDS011;31622;55.416;37.840;2023-05-10T14:15:53;10.82;;;4.72;;
45909;SDS011;31622;55.416;37.840;2023-05-10T14:18:19;10.70;;;4.13;;
45909;SDS011;31622;55.416;37.840;2023-05-10T14:20:46;10.10;;;3.85;;
45909;SDS011;31622;55.416;37.840;2023-05-10T14:23:12;13.70;;;4.45;;
45909;SDS011;31622;55.416;37.840;2023-05-10T14:25:39;19.15;;;4.53;;
45909;SDS011;31622;55.416;37.840;2023-05-10T14:28:05;12.93;;;4.65;;
45909;SDS011;31622;55.416;37.840;2023-05-10T14:30:31;11.48;;;4.35;;
45909;SDS011;31622;55.416;37.840;2023-05-10T14:32:59;10.57;;;3.63;;
45909;SDS011;31622;55.416;37.840;2023-05-10T14:35:26;8.52;;;4.35;;
45909;SDS011;31622;55.416;37.840;2023-05-10T14:37:53;7.35;;;3.50;;
45909;SDS011;31622;55.416;37.840;2023-05-10T14:40:18;10.10;;;3.72;;
45909;SDS011;31622;55.416;37.840;2023-05-10T14:42:44;8.00;;;3.50;;
45909;SDS011;31622;55.416;37.840;2023-05-10T14:45:10;10.00;;;3.53;;
45909;SDS011;31622;55.416;37.840;2023-05-10T14:47:37;19.42;;;11.52;;
45909;SDS011;31622;55.416;37.840;2023-05-10T14:50:02;23.13;;;11.38;;
45909;SDS011;31622;55.416;37.840;2023-05-10T14:52:29;17.30;;;8.93;;
45909;SDS011;31622;55.416;37.840;2023-05-10T14:54:54;16.63;;;8.60;;
45909;SDS011;31622;55.416;37.840;2023-05-10T14:57:20;15.25;;;6.93;;
45909;SDS011;31622;55.416;37.840;2023-05-10T14:59:46;15.38;;;5.72;;
45909;SDS011;31622;55.416;37.840;2023-05-10T15:02:12;15.35;;;6.80;;
45909;SDS011;31622;55.416;37.840;2023-05-10T15:04:38;11.90;;;6.63;;
45909;SDS011;31622;55.416;37.840;2023-05-10T15:07:04;11.30;;;5.60;;
45909;SDS011;31622;55.416;37.840;2023-05-10T15:09:30;13.40;;;5.57;;
45909;SDS011;31622;55.416;37.840;2023-05-10T15:11:56;9.90;;;5.63;;
45909;SDS011;31622;55.416;37.840;2023-05-10T15:14:22;12.88;;;6.25;;
45909;SDS011;31622;55.416;37.840;2023-05-10T15:16:48;9.25;;;5.10;;
45909;SDS011;31622;55.416;37.840;2023-05-10T15:19:14;10.07;;;5.00;;